Time;durP1;ratioP1;P1;durP2;ratioP2;P2;SDS_P1;SDS_P2;PMS_P1;PMS_P2;Temp;Humidity;BMP_temperature;BMP_pressure;BME280_temperature;BME280_humidity;BME280_pressure;Samples;Min_cycle;Max_cycle;Signal;HPM_P1;HPM_P2
2021/06/01 00:00:01;;;;;;;0.38;0.38;;;;;;;18.41;55.48;102018.50;5039832;28;20534;-81
2021/06/01 00:02:28;;;;;;;0.10;0.10;;;;;;;18.38;55.46;102028.44;5048905;28;20392;-81
2021/06/01 00:04:54;;;;;;;3.00;0.75;;;;;;;18.36;55.11;102028.50;5018541;28;20042;-81
2021/06/01 00:07:21;;;;;;;0.20;0.20;;;;;;;18.31;55.42;102019.75;5027286;28;20041;-81
2021/06/01 00:09:47;;;;;;;0.63;0.63;;;;;;;18.27;55.19;102021.66;5028955;28;20384;-81
2021/06/01 00:12:14;;;;;;;0.38;0.38;;;;;;;18.23;55.25;102020.00;5028358;28;20021;-81
2021/06/01 00:14:41;;;;;;;0.20;0.20;;;;;;;18.23;55.38;102022.69;5019793;28;20037;-81
2021/06/01 00:17:07;;;;;;;0.10;0.10;;;;;;;18.21;54.53;102012.94;5026015;28;20029;-81
2021/06/01 00:19:34;;;;;;;0.08;0.08;;;;;;;18.16;54.65;102013.09;5014813;28;20389;-81
2021/06/01 00:22:01;;;;;;;0.00;0.00;;;;;;;18.14;54.64;102011.38;5002191;28;20038;-81
2021/06/01 00:24:27;;;;;;;0.10;0.10;;;;;;;18.11;55.22;102015.91;5011631;28;20045;-81
2021/06/01 00:26:54;;;;;;;1.55;0.40;;;;;;;18.08;54.79;102010.66;5014517;28;20041;-80
2021/06/01 00:29:20;;;;;;;0.30;0.30;;;;;;;18.06;54.44;102012.50;5015045;28;20026;-80
2021/06/01 00:31:46;;;;;;;0.10;0.10;;;;;;;18.05;54.04;102018.78;5014945;28;20034;-80
2021/06/01 00:34:13;;;;;;;1.65;1.55;;;;;;;18.03;54.15;102012.63;5015020;28;20030;-82
2021/06/01 00:36:40;;;;;;;0.10;0.10;;;;;;;17.95;55.03;102014.66;5013313;28;20038;-80
2021/06/01 00:39:07;;;;;;;0.10;0.10;;;;;;;17.94;54.29;102008.44;5014954;28;20037;-81
2021/06/01 00:41:34;;;;;;;0.20;0.20;;;;;;;17.93;54.09;102006.66;5015192;28;20048;-81
2021/06/01 00:44:01;;;;;;;0.10;0.10;;;;;;;17.90;54.17;102005.88;5010596;28;20021;-81
2021/06/01 00:46:28;;;;;;;0.05;0.05;;;;;;;17.88;53.94;102007.72;5014541;28;20065;-81
2021/06/01 00:48:55;;;;;;;0.13;0.13;;;;;;;17.83;54.40;102005.19;5013020;28;20030;-81
2021/06/01 00:51:21;;;;;;;0.10;0.10;;;;;;;17.78;54.08;102008.00;5012198;28;20066;-80
2021/06/01 00:53:48;;;;;;;0.20;0.20;;;;;;;17.74;54.54;102000.97;5014573;28;20034;-81
2021/06/01 00:56:15;;;;;;;0.30;0.30;;;;;;;17.69;54.70;102002.94;5014776;28;20030;-80
2021/06/01 00:58:41;;;;;;;0.10;0.10;;;;;;;17.67;54.33;101994.09;5014283;28;20125;-81
2021/06/01 01:03:54;;;;;;;0.38;0.38;;;;;;;17.58;54.47;101991.66;5130697;27;20406;-81
2021/06/01 01:06:40;;;;;;;0.10;0.10;;;;;;;17.62;53.92;101994.22;5130525;28;20066;-82
2021/06/01 01:09:11;;;;;;;0.10;0.10;;;;;;;17.52;53.96;101992.75;5129152;28;20020;-82
2021/06/01 01:17:17;;;;;;;0.20;0.20;;;;;;;17.42;53.68;101984.13;5073398;28;20865;-82
2021/06/01 01:22:40;;;;;;;0.20;0.20;;;;;;;17.34;53.37;101983.47;5078004;27;20431;-81
2021/06/01 01:28:14;;;;;;;0.10;0.10;;;;;;;17.34;53.05;101979.91;5069293;28;20418;-80
2021/06/01 01:30:47;;;;;;;0.10;0.10;;;;;;;17.30;53.46;101984.50;5069550;28;20033;-80
2021/06/01 01:33:20;;;;;;;0.10;0.10;;;;;;;17.25;53.48;101979.25;5069047;28;20025;-81
2021/06/01 01:35:50;;;;;;;0.00;0.00;;;;;;;17.21;53.68;101984.75;5056831;28;20575;-81
2021/06/01 01:38:18;;;;;;;0.00;0.00;;;;;;;17.19;53.65;101991.97;5063670;28;21705;-80
2021/06/01 01:40:46;;;;;;;0.05;0.05;;;;;;;17.16;53.90;101987.59;5069284;28;20029;-80
2021/06/01 01:43:16;;;;;;;0.03;0.03;;;;;;;17.11;53.98;101985.03;5064769;28;20041;-81
2021/06/01 01:45:46;;;;;;;0.10;0.10;;;;;;;17.11;53.99;101976.13;5054873;28;20060;-80
2021/06/01 01:51:12;;;;;;;0.10;0.10;;;;;;;17.03;54.66;101978.16;5068933;28;20492;-80
2021/06/01 01:53:43;;;;;;;0.10;0.10;;;;;;;17.00;54.38;101975.53;5066350;28;20037;-80
2021/06/01 01:56:09;;;;;;;0.05;0.05;;;;;;;16.98;54.25;101978.28;5068553;28;20045;-80
2021/06/01 01:58:37;;;;;;;0.17;0.17;;;;;;;16.96;54.61;101969.44;5059019;28;20043;-81
2021/06/01 02:01:04;;;;;;;0.10;0.10;;;;;;;16.95;54.56;101975.69;5051776;28;20017;-81
2021/06/01 02:03:30;;;;;;;0.43;0.40;;;;;;;16.92;54.67;101973.97;5050075;28;20030;-80
2021/06/01 02:05:58;;;;;;;0.10;0.10;;;;;;;16.92;53.94;101973.09;5064673;28;20037;-81
2021/06/01 02:08:24;;;;;;;0.10;0.10;;;;;;;16.92;53.98;101973.97;5062907;28;20021;-80
2021/06/01 02:10:52;;;;;;;0.10;0.10;;;;;;;16.92;53.36;101982.00;5055888;28;20021;-80
2021/06/01 02:13:19;;;;;;;0.03;0.03;;;;;;;16.92;54.14;101978.44;5052285;28;20017;-80
2021/06/01 02:15:45;;;;;;;0.10;0.10;;;;;;;16.90;53.35;101975.78;5051420;28;20433;-80
2021/06/01 02:18:12;;;;;;;0.28;0.28;;;;;;;16.87;53.14;101972.31;5065445;28;20120;-80
2021/06/01 02:20:39;;;;;;;0.20;0.20;;;;;;;16.87;53.22;101977.66;5061766;28;20052;-80
2021/06/01 02:26:03;;;;;;;0.00;0.00;;;;;;;16.87;52.85;101975.00;5065478;28;20053;-81
2021/06/01 02:28:44;;;;;;;0.10;0.10;;;;;;;16.90;53.21;101975.78;5056178;28;20028;-80
2021/06/01 02:31:18;;;;;;;0.10;0.10;;;;;;;16.84;52.55;101975.09;5060461;28;20361;-80
2021/06/01 02:33:48;;;;;;;0.30;0.30;;;;;;;16.80;52.71;101977.84;5057342;28;20040;-80
2021/06/01 02:36:17;;;;;;;0.10;0.10;;;;;;;16.79;52.59;101977.88;5052754;28;20022;-80
2021/06/01 02:38:44;;;;;;;0.10;0.10;;;;;;;16.74;52.61;101972.66;5047037;28;20068;-80
2021/06/01 02:41:11;;;;;;;0.00;0.00;;;;;;;16.74;52.93;101966.44;5050180;28;20040;-81
2021/06/01 02:43:38;;;;;;;0.10;0.10;;;;;;;16.75;53.32;101970.88;5044627;28;20109;-80
2021/06/01 02:46:05;;;;;;;0.00;0.00;;;;;;;16.71;53.30;101967.41;5044560;28;20140;-80
2021/06/01 02:48:31;;;;;;;1.45;0.63;;;;;;;16.70;52.90;101968.31;5048560;28;20028;-80
2021/06/01 02:51:14;;;;;;;0.05;0.05;;;;;;;16.68;53.38;101958.59;5039279;28;20026;-81
2021/06/01 02:53:44;;;;;;;0.10;0.10;;;;;;;16.65;53.19;101971.13;5046343;28;20491;-81
2021/06/01 02:56:11;;;;;;;0.00;0.00;;;;;;;16.65;54.03;101967.56;5045867;28;20387;-81
2021/06/01 02:58:40;;;;;;;0.00;0.00;;;;;;;16.64;54.18;101960.47;5037481;28;20033;-80
2021/06/01 03:01:07;;;;;;;0.10;0.10;;;;;;;16.63;53.89;101967.59;5034844;28;20033;-80
2021/06/01 03:03:33;;;;;;;0.63;0.63;;;;;;;16.63;53.44;101962.25;5045607;28;20440;-81
2021/06/01 03:06:00;;;;;;;0.17;0.17;;;;;;;16.60;53.23;101958.81;5037670;28;20021;-81
2021/06/01 03:08:28;;;;;;;0.00;0.00;;;;;;;16.60;53.93;101972.19;5041804;28;20032;-81
2021/06/01 03:10:57;;;;;;;0.10;0.10;;;;;;;16.59;53.92;101965.94;5036453;28;20108;-81
2021/06/01 03:13:24;;;;;;;0.10;0.10;;;;;;;16.56;53.59;101965.13;5047492;28;20495;-81
2021/06/01 03:15:52;;;;;;;0.28;0.13;;;;;;;16.52;53.20;101971.50;5046432;28;20033;-81
2021/06/01 03:18:19;;;;;;;0.10;0.10;;;;;;;16.49;53.11;101970.66;5045880;28;20062;-81
2021/06/01 03:20:45;;;;;;;0.10;0.10;;;;;;;16.42;54.13;101969.06;5037698;28;20029;-81
2021/06/01 03:23:13;;;;;;;0.00;0.00;;;;;;;16.40;54.11;101962.88;5035127;28;20026;-81
2021/06/01 03:25:39;;;;;;;0.10;0.10;;;;;;;16.37;54.29;101960.28;5047427;28;20384;-81
2021/06/01 03:28:06;;;;;;;0.10;0.10;;;;;;;16.37;54.72;101962.94;5048317;28;20396;-81
2021/06/01 03:30:34;;;;;;;0.10;0.10;;;;;;;16.35;53.77;101962.13;5042785;28;20017;-81
2021/06/01 03:33:01;;;;;;;0.00;0.00;;;;;;;16.33;53.51;101959.47;5037378;28;20391;-81
2021/06/01 03:35:29;;;;;;;0.00;0.00;;;;;;;16.35;53.77;101956.78;5034430;28;20104;-81
2021/06/01 03:37:56;;;;;;;0.03;0.03;;;;;;;16.33;53.86;101953.25;5048817;28;20025;-81
2021/06/01 03:40:23;;;;;;;0.00;0.00;;;;;;;16.32;54.11;101962.19;5047787;28;20013;-81
2021/06/01 03:42:51;;;;;;;0.17;0.17;;;;;;;16.31;53.94;101960.44;5037887;28;20036;-81
2021/06/01 03:45:19;;;;;;;0.00;0.00;;;;;;;16.31;54.53;101964.00;5033762;28;20029;-81
2021/06/01 03:47:45;;;;;;;0.00;0.00;;;;;;;16.30;53.99;101962.25;5050971;28;20637;-81
2021/06/01 03:50:12;;;;;;;0.00;0.00;;;;;;;16.30;53.65;101961.38;5038533;28;20025;-81
2021/06/01 03:52:39;;;;;;;0.10;0.10;;;;;;;16.31;53.61;101957.75;5049820;28;20044;-81
2021/06/01 03:55:06;;;;;;;0.20;0.20;;;;;;;16.30;53.48;101964.91;5036776;28;20056;-81
2021/06/01 03:57:33;;;;;;;0.80;0.80;;;;;;;16.29;54.07;101956.94;5040972;28;20029;-81
2021/06/01 03:59:59;;;;;;;0.05;0.05;;;;;;;16.27;53.59;101953.41;5038771;28;20075;-81
2021/06/01 04:02:26;;;;;;;0.10;0.10;;;;;;;16.27;54.27;101959.63;5040352;28;20063;-81
2021/06/01 04:04:52;;;;;;;0.00;0.00;;;;;;;16.30;53.79;101964.06;5049933;28;20498;-81
2021/06/01 04:07:18;;;;;;;0.05;0.05;;;;;;;16.29;53.89;101962.28;5041842;28;20400;-81
2021/06/01 04:09:45;;;;;;;0.10;0.10;;;;;;;16.29;53.93;101959.63;5041292;28;20022;-81
2021/06/01 04:12:11;;;;;;;0.10;0.10;;;;;;;16.28;54.49;101955.19;5035454;28;20067;-81
2021/06/01 04:14:39;;;;;;;0.10;0.10;;;;;;;16.28;54.45;101963.22;5042573;28;20033;-81
2021/06/01 04:17:05;;;;;;;0.28;0.28;;;;;;;16.28;54.34;101961.41;5046802;28;20017;-81
2021/06/01 04:19:33;;;;;;;0.10;0.10;;;;;;;16.30;54.10;101961.38;5040413;28;20579;-81
2021/06/01 04:22:00;;;;;;;0.10;0.10;;;;;;;16.29;54.33;101968.50;5040368;28;20021;-81
2021/06/01 04:24:27;;;;;;;0.10;0.10;;;;;;;16.30;54.44;101964.06;5044191;23;20048;-87
2021/06/01 04:26:56;;;;;;;0.10;0.10;;;;;;;16.30;54.57;101966.72;5024802;28;20038;-87
2021/06/01 04:29:22;;;;;;;0.10;0.10;;;;;;;16.32;54.40;101957.75;5019253;28;20025;-89
2021/06/01 04:31:49;;;;;;;0.10;0.10;;;;;;;16.34;54.59;101961.22;5031908;28;20524;-86
2021/06/01 04:34:15;;;;;;;0.10;0.10;;;;;;;16.36;54.29;101961.19;5029115;28;20025;-89
2021/06/01 04:36:41;;;;;;;0.10;0.10;;;;;;;16.37;54.19;101956.72;5023677;28;20485;-87
2021/06/01 04:39:08;;;;;;;0.10;0.10;;;;;;;16.39;54.29;101957.59;5010493;28;20567;-89
2021/06/01 04:41:34;;;;;;;0.13;0.13;;;;;;;16.43;53.92;101954.75;4999756;28;20087;-90
2021/06/01 04:44:01;;;;;;;0.10;0.10;;;;;;;16.45;54.07;101957.41;5015986;28;20052;-91
2021/06/01 04:46:27;;;;;;;0.10;0.10;;;;;;;16.48;54.47;101960.88;5027542;28;20065;-89
2021/06/01 04:48:54;;;;;;;0.00;0.00;;;;;;;16.50;55.17;101953.69;5020894;28;20116;-90
2021/06/01 04:51:20;;;;;;;0.10;0.10;;;;;;;16.53;54.71;101955.41;5016945;28;20550;-90
2021/06/01 04:56:31;;;;;;;0.52;0.52;;;;;;;16.61;53.60;101950.72;5078512;27;20419;-90
2021/06/01 04:58:58;;;;;;;0.30;0.30;;;;;;;16.62;53.73;101949.81;5060670;28;20060;-89
2021/06/01 05:01:24;;;;;;;0.00;0.00;;;;;;;16.65;54.44;101952.38;5064458;28;20027;-90
2021/06/01 05:03:51;;;;;;;0.10;0.10;;;;;;;16.72;53.87;101955.75;5053514;28;20033;-90
2021/06/01 05:06:17;;;;;;;0.10;0.10;;;;;;;16.76;53.56;101957.44;5050269;28;20472;-89
2021/06/01 05:08:44;;;;;;;0.00;0.00;;;;;;;16.77;53.94;101958.31;5047939;28;20475;-90
2021/06/01 05:11:11;;;;;;;0.08;0.08;;;;;;;16.84;53.66;101959.03;5047770;28;20492;-89
2021/06/01 05:13:37;;;;;;;0.00;0.00;;;;;;;16.87;53.33;101956.25;5048156;28;20031;-90
2021/06/01 05:16:04;;;;;;;0.00;0.00;;;;;;;16.88;53.80;101952.66;5048373;28;20029;-89
2021/06/01 05:18:30;;;;;;;0.00;0.00;;;;;;;16.92;53.55;101951.69;5048832;28;20033;-91
2021/06/01 05:20:56;;;;;;;0.22;0.22;;;;;;;16.96;53.54;101953.38;5048179;28;20036;-91
2021/06/01 05:23:22;;;;;;;0.00;0.00;;;;;;;17.00;53.81;101944.31;5041416;28;20074;-90
2021/06/01 05:25:49;;;;;;;0.10;0.10;;;;;;;17.03;52.17;101949.56;5048204;28;20033;-87
2021/06/01 05:28:15;;;;;;;0.00;0.00;;;;;;;17.08;53.11;101952.97;5046461;28;20072;-84
2021/06/01 05:30:56;;;;;;;0.22;0.22;;;;;;;17.03;52.60;101949.56;5048640;28;20036;-90
2021/06/01 05:33:26;;;;;;;0.10;0.10;;;;;;;17.08;53.52;101952.97;5048248;28;20029;-93
2021/06/01 05:35:53;;;;;;;0.10;0.10;;;;;;;17.06;53.13;101951.25;5044699;28;20033;-95
2021/06/01 05:38:21;;;;;;;0.10;0.10;;;;;;;17.23;53.14;101951.63;5049478;28;20029;-93
2021/06/01 05:40:48;;;;;;;0.10;0.10;;;;;;;17.34;53.64;101948.63;5043957;28;20736;-89
2021/06/01 05:43:15;;;;;;;0.10;0.10;;;;;;;17.56;52.91;101954.22;5056614;28;20033;-95
2021/06/01 05:45:50;;;;;;;0.00;0.00;;;;;;;17.82;52.41;101959.66;5063912;28;20116;-82
2021/06/01 05:48:20;;;;;;;0.10;0.10;;;;;;;17.95;51.87;101961.91;5054374;28;20018;-83
2021/06/01 05:51:00;;;;;;;0.10;0.10;;;;;;;18.10;51.54;101949.78;5069502;28;20006;-83
2021/06/01 05:53:27;;;;;;;0.10;0.10;;;;;;;18.22;51.24;101953.00;5052179;28;20021;-95
2021/06/01 05:55:54;;;;;;;0.52;0.52;;;;;;;18.28;50.94;101950.09;5056278;28;20420;-96
2021/06/01 05:58:22;;;;;;;0.50;0.43;;;;;;;18.34;50.99;101946.31;5057133;28;20029;-96
2021/06/01 06:00:49;;;;;;;0.10;0.10;;;;;;;18.44;50.89;101950.41;5050098;28;20025;-90
2021/06/01 06:03:16;;;;;;;0.03;0.03;;;;;;;18.47;50.74;101952.13;5045956;28;20033;-92
2021/06/01 06:05:44;;;;;;;0.00;0.00;;;;;;;18.55;50.22;101939.31;5044482;28;20459;-92
2021/06/01 06:08:12;;;;;;;0.10;0.10;;;;;;;18.61;50.51;101939.09;5029507;28;20021;-89
2021/06/01 06:10:40;;;;;;;0.10;0.10;;;;;;;18.70;50.21;101933.38;5034521;28;20013;-90
2021/06/01 06:13:07;;;;;;;0.00;0.00;;;;;;;18.78;50.28;101938.47;5035221;28;20021;-92
2021/06/01 06:15:34;;;;;;;0.17;0.17;;;;;;;18.84;50.00;101940.03;5026637;28;20018;-86
2021/06/01 06:20:48;;;;;;;0.10;0.10;;;;;;;19.10;50.06;101941.78;5031084;27;1290967;-93
2021/06/01 06:23:14;;;;;;;0.08;0.08;;;;;;;19.06;48.95;101943.69;5054107;28;20115;-94
2021/06/01 06:25:41;;;;;;;0.05;0.05;;;;;;;19.19;49.66;101938.75;5068261;28;20108;-91
2021/06/01 06:28:07;;;;;;;0.43;0.43;;;;;;;19.28;49.37;101940.19;5070939;28;20472;-90
2021/06/01 06:30:33;;;;;;;0.10;0.10;;;;;;;19.37;49.17;101941.66;5075769;28;20036;-86
2021/06/01 06:32:59;;;;;;;0.10;0.10;;;;;;;19.45;49.25;101947.59;5063794;28;20017;-84
2021/06/01 06:35:26;;;;;;;0.10;0.10;;;;;;;19.54;48.99;101941.84;5062035;28;20071;-85
2021/06/01 06:37:52;;;;;;;0.10;0.10;;;;;;;19.56;49.06;101937.28;5068768;28;20028;-87
2021/06/01 06:40:18;;;;;;;28.85;0.93;;;;;;;19.64;48.77;101939.66;5067253;28;20032;-89
2021/06/01 06:42:45;;;;;;;0.10;0.10;;;;;;;19.72;48.79;101934.81;5069148;28;20074;-90
2021/06/01 06:45:14;;;;;;;0.00;0.00;;;;;;;19.81;48.88;101936.28;5065944;28;20064;-85
2021/06/01 06:50:26;;;;;;;2.30;0.68;;;;;;;19.88;48.28;101939.63;5070956;28;20452;-90
2021/06/01 06:52:52;;;;;;;0.15;0.15;;;;;;;19.97;48.68;101939.22;5065540;28;20025;-90
2021/06/01 06:55:19;;;;;;;0.10;0.10;;;;;;;20.03;48.64;101938.97;5046872;28;20449;-87
2021/06/01 06:57:46;;;;;;;0.10;0.10;;;;;;;20.06;48.25;101934.41;5049244;28;20025;-87
2021/06/01 07:00:18;;;;;;;0.10;0.10;;;;;;;20.16;48.25;101935.75;5048785;28;20029;-89
2021/06/01 07:02:45;;;;;;;0.03;0.03;;;;;;;20.21;48.02;101939.13;5041948;28;20036;-84
2021/06/01 07:05:13;;;;;;;0.00;0.00;;;;;;;20.25;47.51;101930.00;5041975;28;20042;-88
2021/06/01 07:07:40;;;;;;;0.10;0.10;;;;;;;20.33;47.74;101935.88;5043443;28;20025;-84
2021/06/01 07:10:09;;;;;;;0.20;0.20;;;;;;;20.40;47.18;101938.31;5046170;28;20064;-88
2021/06/01 07:12:35;;;;;;;0.10;0.10;;;;;;;20.45;47.29;101928.22;5045801;28;20111;-89
2021/06/01 07:17:54;;;;;;;0.00;0.00;;;;;;;20.65;47.28;101930.91;5065179;27;20406;-88
2021/06/01 07:20:21;;;;;;;0.10;0.10;;;;;;;20.76;46.97;101924.19;5058308;28;20361;-87
2021/06/01 07:22:47;;;;;;;0.75;0.35;;;;;;;20.85;47.13;101921.94;5042200;28;20057;-88
2021/06/01 07:25:13;;;;;;;0.10;0.10;;;;;;;20.95;46.79;101925.06;5048576;28;20048;-86
2021/06/01 07:27:39;;;;;;;0.00;0.00;;;;;;;20.99;47.00;101923.97;5042507;28;20120;-87
2021/06/01 07:30:09;;;;;;;0.20;0.20;;;;;;;21.10;46.74;101920.78;5043890;28;20076;-88
2021/06/01 07:32:35;;;;;;;0.08;0.08;;;;;;;21.16;46.76;101920.50;5038786;28;20030;-87
2021/06/01 07:35:02;;;;;;;0.00;0.00;;;;;;;21.22;46.52;101919.34;5039788;28;20018;-88
2021/06/01 07:37:28;;;;;;;0.10;0.10;;;;;;;21.27;46.20;101928.09;5038020;28;20026;-88
2021/06/01 07:39:54;;;;;;;0.00;0.00;;;;;;;21.40;46.61;101935.59;5042206;27;20064;-85
2021/06/01 07:42:21;;;;;;;0.08;0.08;;;;;;;21.50;46.38;101928.78;5043074;28;20086;-87
2021/06/01 07:44:47;;;;;;;0.10;0.10;;;;;;;21.53;46.21;101925.91;5043040;28;20104;-83
2021/06/01 07:47:13;;;;;;;0.05;0.05;;;;;;;21.64;45.76;101926.28;5041062;28;20053;-87
2021/06/01 07:49:39;;;;;;;0.10;0.10;;;;;;;21.75;46.03;101930.31;5043964;27;20120;-88
2021/06/01 07:52:06;;;;;;;0.20;0.20;;;;;;;21.84;46.06;101937.91;5033305;28;20030;-87
2021/06/01 07:54:33;;;;;;;0.20;0.20;;;;;;;21.92;45.34;101935.72;5042767;28;20023;-87
2021/06/01 07:56:59;;;;;;;0.00;0.00;;;;;;;21.93;45.67;101937.47;5042667;28;20039;-87
2021/06/01 07:59:25;;;;;;;0.00;0.00;;;;;;;22.08;44.55;101927.72;5044213;28;20032;-88
2021/06/01 08:01:51;;;;;;;0.15;0.13;;;;;;;22.14;44.56;101930.09;5044568;28;20033;-88
2021/06/01 08:04:18;;;;;;;0.10;0.10;;;;;;;22.25;44.95;101926.81;5041488;27;20101;-88
2021/06/01 08:06:44;;;;;;;0.70;0.70;;;;;;;22.32;44.95;101923.81;5039082;28;20459;-88
2021/06/01 08:09:10;;;;;;;0.10;0.10;;;;;;;22.41;43.96;101920.66;5040093;28;20049;-87
2021/06/01 08:11:37;;;;;;;0.13;0.13;;;;;;;22.51;44.02;101908.41;5038392;28;20029;-88
2021/06/01 08:14:04;;;;;;;0.00;0.00;;;;;;;22.59;44.24;101906.19;5040712;28;20030;-89
2021/06/01 08:16:32;;;;;;;0.05;0.05;;;;;;;22.69;42.59;101909.25;5035221;28;20048;-87
2021/06/01 08:19:04;;;;;;;0.10;0.10;;;;;;;22.77;43.95;101906.13;5042809;28;20033;-88
2021/06/01 08:24:17;;;;;;;0.60;0.40;;;;;;;22.98;43.74;101900.47;5036313;27;19931;-88
2021/06/01 08:26:44;;;;;;;0.20;0.20;;;;;;;23.10;42.88;101905.19;5042083;28;20499;-89
2021/06/01 08:29:12;;;;;;;0.47;0.47;;;;;;;23.22;42.97;101900.97;5027842;28;20036;-88
2021/06/01 08:31:42;;;;;;;0.10;0.10;;;;;;;23.32;42.62;101894.09;5028049;28;20052;-89
2021/06/01 08:34:09;;;;;;;0.10;0.10;;;;;;;23.43;42.88;101888.06;5029741;28;20018;-88
2021/06/01 08:36:36;;;;;;;0.13;0.13;;;;;;;23.51;41.97;101896.59;5029574;28;20662;-89
2021/06/01 08:39:05;;;;;;;0.10;0.10;;;;;;;23.67;42.13;101893.84;5024876;28;20128;-89
2021/06/01 08:41:32;;;;;;;0.00;0.00;;;;;;;23.81;42.24;101893.03;5023534;28;20426;-88
2021/06/01 08:44:01;;;;;;;0.00;0.00;;;;;;;23.94;42.00;101886.94;5027210;28;20108;-88
2021/06/01 08:46:28;;;;;;;0.10;0.10;;;;;;;24.06;41.89;101886.19;5022398;27;20122;-88
2021/06/01 08:48:55;;;;;;;0.35;0.35;;;;;;;24.13;41.89;101884.84;5029708;28;20434;-88
2021/06/01 08:51:23;;;;;;;0.00;0.00;;;;;;;24.20;39.57;101882.63;5029150;28;20526;-88
2021/06/01 08:53:51;;;;;;;0.10;0.10;;;;;;;24.38;40.77;101880.63;5056236;22;20044;-83
2021/06/01 08:56:18;;;;;;;1.70;0.43;;;;;;;24.47;40.72;101884.59;5027766;28;20064;-85
2021/06/01 08:58:48;;;;;;;0.00;0.00;;;;;;;24.55;39.69;101876.88;5049415;28;20108;-84
2021/06/01 09:01:18;;;;;;;0.10;0.10;;;;;;;24.65;39.86;101871.75;5037952;28;20461;-92
2021/06/01 09:03:49;;;;;;;0.00;0.00;;;;;;;24.71;39.03;101872.25;5038637;28;20041;-83
2021/06/01 09:06:24;;;;;;;0.10;0.10;;;;;;;24.84;38.88;101866.06;5025228;28;20061;-85
2021/06/01 09:09:05;;;;;;;0.00;0.00;;;;;;;24.98;38.83;101865.16;5013294;28;20534;-85
2021/06/01 09:11:50;;;;;;;0.08;0.08;;;;;;;25.11;37.73;101868.81;5029692;28;20415;-84
2021/06/01 09:22:49;;;;;;;0.00;0.00;;;;;;;25.54;37.64;101869.69;5065867;28;20395;-84
2021/06/01 09:25:32;;;;;;;0.10;0.10;;;;;;;25.72;36.84;101852.16;5028659;28;20041;-85
2021/06/01 09:27:58;;;;;;;0.10;0.10;;;;;;;25.81;35.88;101856.06;5025997;28;20037;-86
2021/06/01 09:36:05;;;;;;;0.35;0.35;;;;;;;26.23;34.92;101853.19;5067383;28;20423;-85
2021/06/01 09:41:18;;;;;;;0.10;0.10;;;;;;;26.36;34.89;101854.06;5066971;27;20834;-81
2021/06/01 09:43:56;;;;;;;0.30;0.30;;;;;;;26.55;34.47;101850.03;5045134;28;20483;-82
2021/06/01 09:46:25;;;;;;;0.30;0.30;;;;;;;26.61;33.50;101849.59;5042857;28;20062;-82
2021/06/01 09:48:52;;;;;;;0.08;0.08;;;;;;;26.70;34.74;101848.91;5042706;28;20079;-83
2021/06/01 09:51:30;;;;;;;0.00;0.00;;;;;;;26.86;33.96;101842.41;5033455;28;20039;-82
2021/06/01 09:54:17;;;;;;;0.10;0.10;;;;;;;26.94;34.64;101842.69;5044366;28;20038;-82
2021/06/01 09:56:44;;;;;;;0.10;0.10;;;;;;;27.00;33.53;101847.69;5043294;28;20039;-84
2021/06/01 09:59:14;;;;;;;0.00;0.00;;;;;;;27.11;34.32;101839.56;5038142;28;20059;-82
2021/06/01 10:01:45;;;;;;;0.10;0.10;;;;;;;27.10;34.13;101845.16;5046662;28;20033;-82
2021/06/01 10:04:24;;;;;;;0.00;0.00;;;;;;;27.22;33.24;101843.38;5045275;28;20013;-83
2021/06/01 10:06:52;;;;;;;0.55;0.55;;;;;;;27.13;31.48;101843.06;5045985;28;20130;-82
2021/06/01 10:09:21;;;;;;;0.00;0.00;;;;;;;27.25;33.08;101840.41;5045712;28;20013;-83
2021/06/01 10:11:58;;;;;;;0.00;0.00;;;;;;;27.39;33.23;101837.53;5046232;28;20036;-82
2021/06/01 10:14:27;;;;;;;0.00;0.00;;;;;;;27.42;32.73;101833.72;5047666;28;20020;-83
2021/06/01 10:16:53;;;;;;;0.00;0.00;;;;;;;27.54;32.69;101824.63;5047550;28;20037;-83
2021/06/01 10:19:20;;;;;;;0.00;0.00;;;;;;;27.67;32.66;101824.53;5046451;28;20025;-84
2021/06/01 10:21:53;;;;;;;0.00;0.00;;;;;;;27.74;31.41;101823.06;5045962;28;20735;-85
2021/06/01 10:24:19;;;;;;;0.00;0.00;;;;;;;27.89;32.25;101814.72;5045187;28;20079;-83
2021/06/01 10:26:46;;;;;;;0.10;0.10;;;;;;;27.65;30.84;101821.06;5045248;28;20032;-86
2021/06/01 10:29:14;;;;;;;0.10;0.10;;;;;;;27.67;31.88;101816.38;5046863;28;20033;-90
2021/06/01 10:31:46;;;;;;;0.15;0.15;;;;;;;27.85;31.57;101813.19;5053982;28;20025;-93
2021/06/01 10:34:20;;;;;;;0.10;0.10;;;;;;;28.00;30.00;101816.56;5040876;28;20017;-95
2021/06/01 10:50:48;;;;;;;0.20;0.20;;;;;;;28.50;29.87;101803.50;5095145;28;20432;-86
2021/06/01 10:55:59;;;;;;;0.00;0.00;;;;;;;28.58;29.86;101800.16;5078557;28;21019;-90
2021/06/01 11:04:30;;;;;;;0.00;0.00;;;;;;;28.91;29.12;101789.34;5058393;27;20440;-88
2021/06/01 11:15:22;;;;;;;0.05;0.05;;;;;;;29.10;27.70;101784.06;5063629;27;20454;-84
2021/06/01 11:17:50;;;;;;;0.00;0.00;;;;;;;29.16;27.78;101777.22;5064649;28;20035;-96
2021/06/01 11:20:26;;;;;;;0.40;0.40;;;;;;;29.15;25.99;101772.78;5064866;28;20053;-90
2021/06/01 11:34:37;;;;;;;0.00;0.00;;;;;;;29.69;26.03;101757.25;5038879;28;20124;-93
2021/06/01 11:37:26;;;;;;;0.10;0.10;;;;;;;29.85;26.78;101754.03;5040550;28;20024;-92
2021/06/01 11:40:10;;;;;;;0.10;0.10;;;;;;;29.95;26.37;101755.00;5042619;28;20029;-93
2021/06/01 11:43:06;;;;;;;0.00;0.00;;;;;;;29.98;26.53;101752.00;5045387;28;20080;-96
2021/06/01 11:52:41;;;;;;;0.15;0.15;;;;;;;30.18;25.36;101736.53;5039778;22;20033;-85
2021/06/01 11:55:29;;;;;;;0.25;0.25;;;;;;;30.26;26.88;101746.78;5124223;22;20049;-96
2021/06/01 12:04:18;;;;;;;0.10;0.10;;;;;;;30.54;26.47;101736.09;5053251;28;20097;-96
2021/06/01 12:18:26;;;;;;;0.47;0.47;;;;;;;30.74;24.73;101725.19;5032340;28;20045;-96
2021/06/01 12:20:53;;;;;;;0.05;0.05;;;;;;;30.79;25.01;101721.03;5032222;28;20026;-80
2021/06/01 12:32:39;;;;;;;0.00;0.00;;;;;;;31.01;24.69;101701.75;5096026;28;20123;-91
2021/06/01 12:44:04;;;;;;;0.47;0.47;;;;;;;31.40;24.12;101694.38;5069722;28;20057;-92
2021/06/01 12:46:35;;;;;;;0.00;0.00;;;;;;;31.38;24.24;101684.56;5069691;28;20049;-96
2021/06/01 13:05:27;;;;;;;0.00;0.00;;;;;;;31.50;23.75;101672.44;5059195;28;20037;-93
2021/06/01 13:21:46;;;;;;;0.00;0.00;;;;;;;32.14;22.26;101661.69;5096818;28;20032;-88
2021/06/01 13:36:31;;;;;;;0.00;0.00;;;;;;;32.46;21.59;101641.16;5080252;28;20028;-90
2021/06/01 13:38:47;;;;;;;0.00;0.00;;;;;;;32.50;21.65;101652.66;5083066;28;20048;-92
2021/06/01 13:47:20;;;;;;;0.13;0.13;;;;;;;32.85;21.38;101640.88;5039515;28;20038;-91
2021/06/01 13:49:50;;;;;;;0.00;0.00;;;;;;;32.84;21.68;101630.06;5049461;28;20111;-92
2021/06/01 13:55:13;;;;;;;0.22;0.22;;;;;;;33.05;23.01;101632.47;5072871;27;20473;-93
2021/06/01 13:58:21;;;;;;;0.00;0.00;;;;;;;33.11;23.29;101622.72;5060338;28;20451;-93
2021/06/01 14:00:34;;;;;;;0.32;0.20;;;;;;;33.13;22.07;101637.16;5049048;28;20029;-93
2021/06/01 14:31:53;;;;;;;0.00;0.00;;;;;;;33.62;22.78;101603.63;5100685;27;20390;-89
2021/06/01 14:37:03;;;;;;;0.10;0.10;;;;;;;33.82;22.91;101602.41;5060600;28;20052;-93
2021/06/01 15:07:21;;;;;;;0.17;0.17;;;;;;;34.27;21.81;101583.78;5029958;28;20101;-92
2021/06/01 15:50:08;;;;;;;0.15;0.15;;;;;;;34.77;18.65;101559.03;5050118;28;20049;-92
2021/06/01 15:52:56;;;;;;;0.00;0.00;;;;;;;34.73;19.82;101555.81;5063623;28;20039;-93
2021/06/01 15:55:53;;;;;;;0.57;0.57;;;;;;;34.43;19.08;101551.84;5057264;28;20149;-89
2021/06/01 16:23:32;;;;;;;0.00;0.00;;;;;;;34.83;19.70;101537.22;5068833;28;20045;-89
2021/06/01 16:32:13;;;;;;;0.00;0.00;;;;;;;35.15;20.12;101540.97;5046076;28;20079;-88
2021/06/01 17:03:20;;;;;;;0.35;0.35;;;;;;;35.93;19.81;101523.78;5053851;28;20048;-86
2021/06/01 17:05:37;;;;;;;0.00;0.00;;;;;;;36.09;19.73;101526.41;5054331;28;20033;-86
2021/06/01 17:11:17;;;;;;;0.00;0.00;;;;;;;36.22;19.95;101513.91;5037466;28;20441;-90
2021/06/01 17:19:28;;;;;;;0.00;0.00;;;;;;;36.43;19.65;101514.09;5070907;27;20430;-91
2021/06/01 17:22:07;;;;;;;0.00;0.00;;;;;;;36.64;19.79;101512.53;5045073;28;20488;-90
2021/06/01 17:35:42;;;;;;;0.60;0.35;;;;;;;37.34;20.15;101493.84;5016709;28;20405;-89
2021/06/01 17:38:11;;;;;;;0.08;0.08;;;;;;;37.43;19.83;101499.28;5018727;28;20038;-89